Curvelo, Brazil
Current Conditions -  °F | °C
As of 10:00 PM on Wednesday 22 Oct 2014 (Local Time) from SBLS Reporting Station
Scattered Clouds Scattered Clouds  
Wind Chill: 68°   Ceiling: Unl
Heat Index: 68°   Visibility: 6mi
Dew Point: 57°   Wind: 10mph
Humidity: 68%   Direction: 130°SE
Pressure: 30.18"   Gusts: NA
Location:  18.76°S, 44.43°W
Report Text: SBLS 230000Z 13009KT 9999 SCT030 SCT100 20/14 Q1022
Loading
Personal Weather Stations






























Interactive Weather Map
Tropical Storm Tracking
New forecast layout! Learn more

10-Day Weather Forecast

Advertisements
Track Severe Weather on mobile